createdAt,value
2019-03-29T00:00:30.318Z,78.03
2019-03-29T00:03:35.216Z,77.67
2019-03-29T00:06:39.762Z,78.52
2019-03-29T00:09:44.792Z,77.05
2019-03-29T00:12:49.233Z,78.39
2019-03-29T00:15:53.873Z,77.62
2019-03-29T00:18:58.969Z,77.68
2019-03-29T00:22:04.945Z,77.84
2019-03-29T00:25:10.287Z,78.43
2019-03-29T00:28:14.702Z,78.67
2019-03-29T00:31:19.120Z,79.01
2019-03-29T00:34:23.921Z,78.60
2019-03-29T00:37:28.761Z,78.71
2019-03-29T00:40:34.777Z,78.57
2019-03-29T00:43:39.520Z,78.75
2019-03-29T00:46:44.085Z,78.42
2019-03-29T00:49:49.185Z,78.55
2019-03-29T00:52:53.607Z,79.22
2019-03-29T00:55:58.150Z,79.01
2019-03-29T00:59:02.551Z,79.03
2019-03-29T01:02:07.058Z,79.05
2019-03-29T01:05:11.817Z,79.31
2019-03-29T01:08:16.576Z,79.31
2019-03-29T01:11:20.987Z,79.74
2019-03-29T01:14:25.448Z,80.60
2019-03-29T01:17:30.638Z,80.53
2019-03-29T01:20:35.034Z,81.03
2019-03-29T01:23:39.467Z,81.28
2019-03-29T01:26:43.943Z,81.18
2019-03-29T01:29:48.651Z,80.29
2019-03-29T01:32:53.467Z,80.68
2019-03-29T01:35:58.546Z,81.09
2019-03-29T01:39:04.187Z,80.66
2019-03-29T01:42:08.661Z,80.81
2019-03-29T01:45:13.881Z,81.29
2019-03-29T01:48:18.339Z,81.01
2019-03-29T01:51:23.385Z,81.41
2019-03-29T01:54:27.951Z,81.22
2019-03-29T01:57:32.974Z,81.18
2019-03-29T02:00:37.645Z,81.41
2019-03-29T02:03:42.178Z,81.56
2019-03-29T02:06:46.660Z,81.79
2019-03-29T02:09:52.205Z,81.59
2019-03-29T02:12:56.707Z,82.37
2019-03-29T02:16:01.952Z,82.01
2019-03-29T02:19:06.549Z,82.58
2019-03-29T02:22:11.519Z,83.20
2019-03-29T02:25:16.419Z,82.77
2019-03-29T02:28:21.378Z,83.71
2019-03-29T02:31:26.464Z,83.72
2019-03-29T02:34:31.919Z,83.89
2019-03-29T02:37:36.411Z,83.64
2019-03-29T02:40:41.215Z,84.26
2019-03-29T02:43:45.689Z,83.89
2019-03-29T02:46:50.690Z,83.62
2019-03-29T02:49:57.616Z,83.56
2019-03-29T02:53:02.046Z,82.37
2019-03-29T02:56:06.842Z,83.72
2019-03-29T02:59:11.670Z,83.39
2019-03-29T03:02:16.231Z,83.40
2019-03-29T03:05:20.754Z,84.07
2019-03-29T03:08:25.466Z,84.17
2019-03-29T03:11:30.272Z,85.32
2019-03-29T03:14:34.744Z,85.22
2019-03-29T03:17:39.330Z,85.09
2019-03-29T03:20:44.160Z,84.39
2019-03-29T03:23:48.632Z,84.43
2019-03-29T03:26:53.170Z,83.89
2019-03-29T03:29:58.333Z,84.10
2019-03-29T03:33:03.035Z,83.87
2019-03-29T03:36:07.272Z,83.61
2019-03-29T03:39:30.193Z,84.29
2019-03-29T03:42:18.205Z,84.76
2019-03-29T03:45:22.848Z,84.56
2019-03-29T03:48:28.223Z,84.75
2019-03-29T03:51:33.513Z,85.87
2019-03-29T03:54:38.570Z,85.58
2019-03-29T03:57:43.690Z,85.14
2019-03-29T04:00:56.682Z,86.20
2019-03-29T04:04:01.312Z,86.08
2019-03-29T04:07:05.733Z,85.90
2019-03-29T04:10:10.233Z,86.92
2019-03-29T04:13:15.090Z,87.11
2019-03-29T04:16:19.427Z,87.07
2019-03-29T04:19:24.016Z,87.48
2019-03-29T04:22:28.741Z,86.87
2019-03-29T04:25:33.274Z,87.56
2019-03-29T04:28:38.079Z,88.21
2019-03-29T04:31:42.573Z,88.49
2019-03-29T04:34:47.032Z,88.56
2019-03-29T04:37:52.122Z,89.51
2019-03-29T04:40:56.886Z,89.85
2019-03-29T04:44:01.801Z,90.62
2019-03-29T04:47:06.546Z,90.89
2019-03-29T04:50:13.290Z,90.80
2019-03-29T04:53:18.059Z,90.64
2019-03-29T04:56:22.977Z,91.00
2019-03-29T04:59:27.549Z,90.89
2019-03-29T05:02:32.332Z,91.15
2019-03-29T05:05:36.879Z,91.71
2019-03-29T05:08:41.430Z,91.24
2019-03-29T05:11:45.880Z,90.34
2019-03-29T05:14:50.836Z,90.38
2019-03-29T05:17:55.601Z,90.06
2019-03-29T05:21:00.745Z,90.12
2019-03-29T05:24:05.236Z,89.68
2019-03-29T05:27:10.234Z,90.07
2019-03-29T05:30:15.165Z,89.79
2019-03-29T05:33:19.622Z,90.51
2019-03-29T05:36:23.989Z,90.15
2019-03-29T05:39:28.519Z,89.86
2019-03-29T05:42:33.069Z,89.73
2019-03-29T05:45:38.273Z,88.49
2019-03-29T05:48:43.080Z,88.77
2019-03-29T05:51:48.228Z,89.01
2019-03-29T05:54:52.658Z,88.78
2019-03-29T05:57:57.383Z,88.58
2019-03-29T06:01:02.365Z,88.79
2019-03-29T06:04:07.247Z,88.92
2019-03-29T06:07:11.724Z,89.47
2019-03-29T06:10:16.512Z,92.19
2019-03-29T06:13:21.581Z,91.00
2019-03-29T06:16:38.378Z,92.17
2019-03-29T06:19:33.321Z,91.62
2019-03-29T06:22:38.641Z,90.31
2019-03-29T06:25:43.106Z,89.60
2019-03-29T06:28:48.251Z,89.00
2019-03-29T06:31:52.788Z,87.79
2019-03-29T06:34:57.400Z,87.38
2019-03-29T06:38:03.411Z,86.61
2019-03-29T06:41:08.247Z,85.93
2019-03-29T06:44:12.848Z,85.02
2019-03-29T06:47:19.274Z,84.34
2019-03-29T06:50:23.762Z,84.08
2019-03-29T06:53:28.708Z,83.36
2019-03-29T06:56:33.705Z,83.11
2019-03-29T06:59:38.703Z,82.50
2019-03-29T07:02:43.344Z,81.79
2019-03-29T07:05:47.976Z,82.46
2019-03-29T07:08:52.455Z,81.58
2019-03-29T07:11:57.741Z,81.05
2019-03-29T07:15:02.392Z,81.16
2019-03-29T07:18:06.931Z,80.74
2019-03-29T07:21:21.332Z,80.04
2019-03-29T07:24:17.724Z,79.31
2019-03-29T07:27:22.652Z,78.84
2019-03-29T07:30:27.168Z,78.38
2019-03-29T07:33:32.265Z,77.64
2019-03-29T07:36:37.089Z,77.20
2019-03-29T07:39:41.539Z,77.07
2019-03-29T07:42:45.926Z,76.28
2019-03-29T07:45:50.674Z,75.31
2019-03-29T07:48:55.102Z,75.15
2019-03-29T07:52:00.555Z,74.53
2019-03-29T07:55:05.738Z,73.75
2019-03-29T07:58:10.410Z,73.83
2019-03-29T08:01:14.894Z,73.04
2019-03-29T08:04:21.599Z,72.16
2019-03-29T08:07:27.445Z,71.79
2019-03-29T08:10:32.800Z,70.26
2019-03-29T08:13:37.305Z,70.48
2019-03-29T08:16:42.130Z,70.90
2019-03-29T08:19:46.682Z,69.63
2019-03-29T08:22:51.517Z,69.16
2019-03-29T08:25:56.451Z,68.80
2019-03-29T08:29:01.270Z,69.21
2019-03-29T08:32:05.862Z,68.61
2019-03-29T08:35:11.875Z,68.64
2019-03-29T08:38:16.311Z,67.28
2019-03-29T08:41:20.808Z,66.38
2019-03-29T08:44:25.571Z,66.81
2019-03-29T08:47:30.011Z,66.96
2019-03-29T08:50:34.380Z,66.14
2019-03-29T08:53:39.030Z,65.90
2019-03-29T08:56:43.538Z,65.05
2019-03-29T08:59:48.499Z,65.06
2019-03-29T09:02:53.389Z,65.28
2019-03-29T09:05:59.763Z,63.65
2019-03-29T09:09:06.383Z,63.01
2019-03-29T09:12:14.641Z,63.00
2019-03-29T09:15:17.880Z,63.06
2019-03-29T09:18:25.755Z,61.65
2019-03-29T09:21:29.058Z,60.53
2019-03-29T09:24:34.080Z,60.97
2019-03-29T09:27:38.805Z,59.04
2019-03-29T09:30:43.934Z,58.88
2019-03-29T09:33:48.839Z,57.88
2019-03-29T09:36:53.311Z,59.16
2019-03-29T09:39:57.850Z,58.38
2019-03-29T09:43:09.615Z,59.38
2019-03-29T09:46:08.685Z,57.91
2019-03-29T09:49:13.234Z,57.69
2019-03-29T09:52:17.781Z,58.76
2019-03-29T09:55:22.476Z,58.02
2019-03-29T09:58:26.977Z,56.50
2019-03-29T10:01:31.623Z,55.93
2019-03-29T10:04:36.602Z,53.02
2019-03-29T10:07:41.138Z,53.02
2019-03-29T10:10:45.819Z,53.06
2019-03-29T10:13:50.261Z,51.53
2019-03-29T10:16:55.079Z,49.86
2019-03-29T10:19:59.554Z,49.63
2019-03-29T10:23:04.178Z,49.96
2019-03-29T10:26:08.654Z,50.21
2019-03-29T10:29:13.171Z,49.86
2019-03-29T10:32:17.878Z,49.86
2019-03-29T10:35:23.663Z,48.16
2019-03-29T10:38:28.326Z,47.71
2019-03-29T10:41:34.547Z,47.26
2019-03-29T10:44:39.714Z,47.38
2019-03-29T10:47:45.035Z,47.74
2019-03-29T10:50:49.457Z,48.31
2019-03-29T10:53:54.106Z,47.91
2019-03-29T10:56:59.010Z,48.23
2019-03-29T11:00:04.044Z,47.82
2019-03-29T11:03:08.774Z,46.58
2019-03-29T11:06:13.230Z,48.04
2019-03-29T11:09:18.066Z,47.19
2019-03-29T11:12:22.638Z,47.48
2019-03-29T11:15:27.038Z,47.24
2019-03-29T11:18:31.481Z,47.04
2019-03-29T11:21:35.981Z,46.88
2019-03-29T11:24:40.349Z,46.19
2019-03-29T11:27:44.986Z,46.39
2019-03-29T11:30:49.533Z,46.32
2019-03-29T11:33:53.931Z,45.41
2019-03-29T11:36:58.448Z,44.23
2019-03-29T11:40:03.022Z,44.63
2019-03-29T11:43:07.609Z,43.12
2019-03-29T11:46:12.136Z,43.07
2019-03-29T11:49:17.001Z,44.00
2019-03-29T11:52:21.335Z,43.10
2019-03-29T11:55:25.723Z,42.70
2019-03-29T11:58:30.202Z,43.10
2019-03-29T12:01:34.714Z,43.21
2019-03-29T12:04:39.180Z,42.98
2019-03-29T12:07:43.616Z,41.60
2019-03-29T12:10:48.071Z,41.23
2019-03-29T12:13:52.669Z,40.07
2019-03-29T12:16:57.639Z,38.70
2019-03-29T12:20:02.299Z,38.02
2019-03-29T12:23:06.699Z,38.83
2019-03-29T12:26:11.455Z,38.94
2019-03-29T12:29:15.946Z,38.68
2019-03-29T12:32:20.409Z,38.65
2019-03-29T12:35:24.833Z,38.78
2019-03-29T12:38:29.169Z,38.51
2019-03-29T12:41:33.525Z,37.84
2019-03-29T12:44:38.306Z,38.22
2019-03-29T12:47:42.708Z,38.17
2019-03-29T12:50:47.122Z,37.40
2019-03-29T12:53:51.600Z,36.96
2019-03-29T12:56:56.097Z,36.75
2019-03-29T13:00:00.841Z,36.08
2019-03-29T13:03:05.428Z,36.76
2019-03-29T13:06:09.922Z,35.13
2019-03-29T13:09:14.350Z,35.10
2019-03-29T13:12:19.113Z,34.29
2019-03-29T13:15:23.714Z,33.64
2019-03-29T13:18:28.332Z,33.71
2019-03-29T13:21:32.704Z,33.70
2019-03-29T13:24:37.122Z,33.65
2019-03-29T13:27:41.834Z,33.53
2019-03-29T13:30:46.888Z,33.10
2019-03-29T13:33:51.421Z,33.11
2019-03-29T13:36:55.801Z,32.13
2019-03-29T13:40:00.402Z,32.86
2019-03-29T13:43:05.077Z,32.65
2019-03-29T13:46:09.588Z,33.21
2019-03-29T13:49:13.967Z,33.07
2019-03-29T13:52:18.271Z,33.43
2019-03-29T13:55:22.839Z,32.43
2019-03-29T13:58:27.163Z,32.72
2019-03-29T14:01:31.726Z,32.98
2019-03-29T14:04:36.216Z,32.33
2019-03-29T14:07:40.497Z,33.04
2019-03-29T14:10:44.977Z,31.72
2019-03-29T14:13:49.301Z,31.57
2019-03-29T14:16:53.636Z,32.21
2019-03-29T14:19:57.920Z,32.19
2019-03-29T14:23:03.104Z,30.57
2019-03-29T14:26:07.533Z,30.86
2019-03-29T14:29:11.919Z,31.10
2019-03-29T14:32:16.303Z,31.18
2019-03-29T14:35:20.630Z,31.61
2019-03-29T14:38:25.100Z,31.59
2019-03-29T14:41:29.718Z,31.67
2019-03-29T14:44:34.208Z,31.87
2019-03-29T14:47:43.024Z,31.74
2019-03-29T14:50:44.789Z,30.88
2019-03-29T14:53:50.262Z,30.34
2019-03-29T14:56:55.199Z,31.09
2019-03-29T14:59:59.704Z,30.95
2019-03-29T15:03:04.167Z,30.52
2019-03-29T15:06:08.629Z,31.02
2019-03-29T15:09:13.298Z,30.55
2019-03-29T15:12:17.718Z,30.61
2019-03-29T15:15:22.225Z,30.29
2019-03-29T15:18:26.771Z,30.75
2019-03-29T15:21:31.454Z,30.36
2019-03-29T15:24:36.368Z,30.78
2019-03-29T15:27:41.480Z,31.52
2019-03-29T15:30:45.907Z,29.90
2019-03-29T15:33:50.295Z,30.82
2019-03-29T15:36:54.907Z,30.55
2019-03-29T15:39:59.364Z,31.17
2019-03-29T15:43:03.718Z,30.87
2019-03-29T15:46:08.141Z,31.36
2019-03-29T15:49:12.698Z,31.49
2019-03-29T15:52:17.000Z,31.48
2019-03-29T15:55:21.526Z,31.50
2019-03-29T15:58:26.450Z,31.55
2019-03-29T16:01:30.898Z,31.97
2019-03-29T16:04:35.440Z,31.95
2019-03-29T16:07:39.943Z,32.08
2019-03-29T16:10:44.830Z,31.99
2019-03-29T16:13:49.534Z,32.32
2019-03-29T16:16:53.855Z,32.80
2019-03-29T16:19:58.477Z,33.05
2019-03-29T16:23:02.810Z,33.14
2019-03-29T16:26:07.115Z,33.02
2019-03-29T16:29:11.842Z,33.31
2019-03-29T16:32:16.238Z,33.41
2019-03-29T16:35:20.622Z,34.38
2019-03-29T16:38:25.501Z,34.68
2019-03-29T16:41:29.946Z,35.54
2019-03-29T16:44:34.583Z,34.74
2019-03-29T16:47:39.007Z,35.65
2019-03-29T16:50:43.317Z,35.78
2019-03-29T16:53:47.637Z,36.07
2019-03-29T16:56:51.931Z,36.53
2019-03-29T16:59:56.239Z,36.28
2019-03-29T17:03:00.610Z,37.21
2019-03-29T17:06:05.302Z,37.27
2019-03-29T17:09:09.856Z,36.88
2019-03-29T17:12:14.244Z,37.51
2019-03-29T17:15:19.916Z,36.77
2019-03-29T17:18:29.570Z,37.55
2019-03-29T17:21:30.683Z,37.25
2019-03-29T17:24:35.068Z,37.62
2019-03-29T17:27:39.547Z,38.36
2019-03-29T17:30:48.407Z,38.15
2019-03-29T17:33:52.989Z,38.35
2019-03-29T17:36:57.637Z,38.97
2019-03-29T17:40:02.171Z,39.09
2019-03-29T17:43:06.565Z,39.08
2019-03-29T17:46:16.548Z,39.52
2019-03-29T17:49:17.331Z,39.94
2019-03-29T17:52:22.075Z,40.19
2019-03-29T17:55:26.455Z,40.67
2019-03-29T17:58:31.228Z,40.91
2019-03-29T18:01:39.181Z,41.11
2019-03-29T18:04:42.214Z,41.32
2019-03-29T18:07:47.242Z,41.29
2019-03-29T18:10:52.227Z,41.62
2019-03-29T18:13:56.631Z,42.29
2019-03-29T18:17:00.982Z,42.64
2019-03-29T18:20:05.898Z,43.64
2019-03-29T18:23:10.301Z,44.41
2019-03-29T18:26:14.795Z,44.83
2019-03-29T18:29:19.246Z,45.46
2019-03-29T18:32:23.876Z,46.23
2019-03-29T18:35:28.684Z,46.42
2019-03-29T18:38:34.957Z,46.88
2019-03-29T18:41:39.261Z,47.13
2019-03-29T18:44:43.978Z,47.77
2019-03-29T18:47:48.671Z,47.86
2019-03-29T18:50:53.038Z,47.83
2019-03-29T18:53:57.393Z,48.03
2019-03-29T18:57:02.043Z,48.78
2019-03-29T19:00:08.141Z,49.08
2019-03-29T19:03:12.642Z,49.61
2019-03-29T19:06:17.394Z,49.89
2019-03-29T19:09:22.508Z,50.77
2019-03-29T19:12:27.020Z,51.00
2019-03-29T19:15:31.896Z,51.42
2019-03-29T19:18:36.336Z,51.48
2019-03-29T19:21:41.024Z,52.21
2019-03-29T19:24:45.428Z,52.20
2019-03-29T19:27:49.889Z,52.20
2019-03-29T19:30:54.886Z,52.38
2019-03-29T19:33:59.598Z,52.31
2019-03-29T19:37:04.077Z,52.47
2019-03-29T19:40:08.829Z,53.00
2019-03-29T19:43:13.386Z,53.78
2019-03-29T19:46:18.251Z,54.34
2019-03-29T19:49:24.453Z,54.91
2019-03-29T19:52:29.035Z,54.92
2019-03-29T19:55:33.598Z,55.45
2019-03-29T19:58:38.128Z,55.93
2019-03-29T20:01:42.583Z,56.05
2019-03-29T20:04:48.688Z,55.95
2019-03-29T20:07:53.560Z,56.13
2019-03-29T20:10:58.060Z,56.74
2019-03-29T20:14:02.848Z,56.83
2019-03-29T20:17:07.420Z,56.78
2019-03-29T20:20:16.067Z,57.04
2019-03-29T20:23:20.525Z,57.40
2019-03-29T20:26:25.041Z,57.27
2019-03-29T20:29:30.092Z,57.70
2019-03-29T20:32:34.858Z,58.26
2019-03-29T20:35:39.343Z,58.11
2019-03-29T20:38:44.822Z,58.86
2019-03-29T20:41:49.280Z,58.85
2019-03-29T20:44:54.182Z,58.81
2019-03-29T20:47:58.609Z,58.73
2019-03-29T20:51:03.140Z,58.75
2019-03-29T20:54:07.840Z,58.48
2019-03-29T20:57:12.548Z,58.04
2019-03-29T21:00:18.320Z,57.67
2019-03-29T21:03:22.786Z,57.92
2019-03-29T21:06:27.138Z,57.94
2019-03-29T21:09:31.455Z,57.78
2019-03-29T21:12:36.205Z,57.69
2019-03-29T21:15:41.016Z,57.75
2019-03-29T21:18:45.629Z,58.16
2019-03-29T21:21:50.052Z,57.80
2019-03-29T21:24:54.460Z,58.47
2019-03-29T21:27:58.878Z,58.25
2019-03-29T21:31:03.215Z,58.40
2019-03-29T21:34:07.593Z,58.71
2019-03-29T21:37:12.261Z,58.61
2019-03-29T21:40:17.099Z,59.04
2019-03-29T21:43:21.880Z,59.35
2019-03-29T21:46:26.552Z,59.33
2019-03-29T21:49:31.326Z,59.63
2019-03-29T21:52:36.122Z,59.51
2019-03-29T21:55:40.674Z,59.98
2019-03-29T21:58:45.100Z,59.92
2019-03-29T22:01:49.598Z,59.76
2019-03-29T22:04:54.370Z,60.47
2019-03-29T22:07:59.229Z,59.93
2019-03-29T22:11:03.621Z,59.82
2019-03-29T22:14:08.073Z,60.28
2019-03-29T22:17:12.467Z,59.86
2019-03-29T22:20:16.796Z,59.79
2019-03-29T22:23:21.338Z,59.92
2019-03-29T22:26:25.890Z,60.84
2019-03-29T22:29:30.519Z,60.53
2019-03-29T22:32:34.904Z,61.02
2019-03-29T22:35:39.737Z,61.03
2019-03-29T22:38:44.410Z,61.30
2019-03-29T22:41:48.830Z,60.49
2019-03-29T22:44:53.243Z,60.92
2019-03-29T22:47:57.676Z,60.08
2019-03-29T22:51:02.329Z,60.37
2019-03-29T22:54:06.722Z,61.52
2019-03-29T22:57:11.225Z,61.65
2019-03-29T23:00:20.889Z,61.86
2019-03-29T23:03:25.706Z,61.82
2019-03-29T23:06:30.571Z,62.07
2019-03-29T23:09:35.001Z,62.08
2019-03-29T23:12:39.341Z,62.30
2019-03-29T23:15:44.016Z,62.25
2019-03-29T23:18:48.766Z,62.68
2019-03-29T23:21:53.239Z,62.63
2019-03-29T23:24:59.645Z,62.22
2019-03-29T23:28:04.368Z,62.57
2019-03-29T23:31:08.874Z,62.39
2019-03-29T23:34:13.645Z,63.34
2019-03-29T23:37:18.545Z,63.53
2019-03-29T23:40:23.296Z,63.41
2019-03-29T23:43:27.904Z,63.37
2019-03-29T23:46:32.378Z,63.40
2019-03-29T23:49:37.515Z,63.41
2019-03-29T23:52:43.059Z,63.42
2019-03-29T23:55:47.894Z,63.24
2019-03-29T23:58:52.412Z,63.01
